Time;durP1;ratioP1;P1;durP2;ratioP2;P2;SDS_P1;SDS_P2;PMS_P1;PMS_P2;Temp;Humidity;BMP_temperature;BMP_pressure;BME280_temperature;BME280_humidity;BME280_pressure;Samples;Min_cycle;Max_cycle;Signal;HPM_P1;HPM_P2
2022/08/02 00:01:30;;;;;;;;;3.00;3.00;;;;;25.99;45.38;101551.31;5080312;27;45791;-72
2022/08/02 00:03:55;;;;;;;;;3.00;3.00;;;;;25.87;45.41;101536.97;5093211;27;45630;-72
2022/08/02 00:06:20;;;;;;;;;3.00;3.00;;;;;25.97;45.27;101555.19;5094528;27;45785;-73
2022/08/02 00:08:46;;;;;;;;;3.00;3.00;;;;;25.90;45.48;101547.56;5092085;27;46138;-72
2022/08/02 00:11:11;;;;;;;;;2.00;2.00;;;;;25.90;45.24;101542.13;5091343;27;45668;-72
2022/08/02 00:13:37;;;;;;;;;3.67;2.00;;;;;25.89;45.57;101544.97;5096634;27;45567;-73
2022/08/02 00:16:02;;;;;;;;;3.00;3.00;;;;;25.87;45.22;101544.25;5077005;27;45837;-73
2022/08/02 00:18:28;;;;;;;;;3.33;3.33;;;;;25.77;45.67;101530.59;5080667;27;45967;-72
2022/08/02 00:20:53;;;;;;;;;4.00;2.67;;;;;25.78;45.73;101537.81;5089979;27;45641;-72
2022/08/02 00:23:19;;;;;;;;;5.00;4.67;;;;;25.76;45.27;101538.97;5079698;27;45587;-73
2022/08/02 00:25:44;;;;;;;;;5.00;3.00;;;;;25.65;46.03;101520.88;5096451;27;45486;-72
2022/08/02 00:28:10;;;;;;;;;4.00;3.00;;;;;25.66;45.96;101537.13;5097190;27;46295;-72
2022/08/02 00:30:35;;;;;;;;;1.33;1.33;;;;;25.59;45.89;101525.06;5097413;27;45514;-72
2022/08/02 00:33:01;;;;;;;;;3.67;2.67;;;;;25.65;45.71;101543.56;5099301;27;45862;-72
2022/08/02 00:35:27;;;;;;;;;4.00;3.33;;;;;25.66;45.86;101544.41;5097835;27;45589;-72
2022/08/02 00:37:52;;;;;;;;;5.33;4.00;;;;;25.64;46.17;101539.13;5096965;27;46067;-71
2022/08/02 00:40:22;;;;;;;;;4.00;3.00;;;;;25.62;46.16;101537.53;5096190;27;45538;-71
2022/08/02 00:43:05;;;;;;;;;0.67;0.67;;;;;25.58;45.94;101539.69;5096957;27;45481;-71
2022/08/02 00:45:32;;;;;;;;;5.00;3.67;;;;;25.44;46.00;101512.84;5093698;27;45545;-71
2022/08/02 00:47:58;;;;;;;;;4.00;3.33;;;;;25.52;46.40;101532.09;5097393;27;45473;-72
2022/08/02 00:50:23;;;;;;;;;2.33;2.33;;;;;25.50;46.75;101534.13;5095997;27;47191;-71
2022/08/02 00:52:49;;;;;;;;;2.67;2.67;;;;;25.52;46.49;101550.31;5098034;27;45542;-71
2022/08/02 00:55:14;;;;;;;;;3.00;3.00;;;;;25.46;46.14;101541.72;5092138;27;45554;-72
2022/08/02 00:57:39;;;;;;;;;6.00;4.00;;;;;25.47;46.30;101538.00;5093245;27;46615;-72
2022/08/02 01:00:06;;;;;;;;;3.67;3.67;;;;;25.40;46.78;101535.97;5094599;27;46871;-72
2022/08/02 01:02:31;;;;;;;;;2.67;2.67;;;;;25.39;46.50;101546.03;5084797;27;46384;-71
2022/08/02 01:04:57;;;;;;;;;6.33;3.33;;;;;25.37;46.79;101545.31;5079724;27;45793;-71
2022/08/02 01:07:22;;;;;;;;;2.67;2.67;;;;;25.36;46.94;101549.06;5093411;27;46186;-72
2022/08/02 01:09:48;;;;;;;;;3.00;2.00;;;;;25.30;47.01;101541.44;5093437;27;45777;-72
2022/08/02 01:12:13;;;;;;;;;2.33;1.00;;;;;25.33;46.78;101551.19;5094300;27;46034;-71
2022/08/02 01:14:44;;;;;;;;;3.67;3.00;;;;;25.19;47.34;101522.47;5095524;27;45538;-72
2022/08/02 01:17:28;;;;;;;;;2.00;2.00;;;;;25.28;46.66;101547.03;5093135;27;45727;-72
2022/08/02 01:20:03;;;;;;;;;2.00;2.00;;;;;25.26;47.13;101546.34;5079627;27;45848;-71
2022/08/02 01:23:06;;;;;;;;;3.00;3.00;;;;;25.23;46.61;101551.19;5093070;27;46184;-72
2022/08/02 01:25:46;;;;;;;;;3.00;3.00;;;;;25.21;46.95;101545.03;5095649;27;45526;-71
2022/08/02 01:28:41;;;;;;;;;3.00;3.00;;;;;25.21;46.99;101548.59;5096438;27;47283;-71
2022/08/02 01:31:33;;;;;;;;;2.00;2.00;;;;;25.18;46.86;101551.63;5076497;27;45726;-71
2022/08/02 01:34:10;;;;;;;;;2.00;2.00;;;;;25.16;47.41;101561.78;5088272;27;45530;-71
2022/08/02 01:36:40;;;;;;;;;2.33;1.67;;;;;25.14;46.93;101558.34;5095041;27;46261;-71
2022/08/02 01:39:10;;;;;;;;;4.33;3.33;;;;;25.10;47.30;101548.75;5096240;27;45559;-72
2022/08/02 01:41:38;;;;;;;;;3.00;2.00;;;;;25.07;47.61;101554.47;5094380;27;46663;-71
2022/08/02 01:44:04;;;;;;;;;3.00;3.00;;;;;25.04;47.45;101552.88;5097154;27;45783;-71
2022/08/02 01:46:31;;;;;;;;;3.00;3.00;;;;;25.04;47.29;101561.06;5096451;27;45784;-71
2022/08/02 01:49:00;;;;;;;;;2.00;2.00;;;;;25.04;47.08;101558.34;5098190;27;46105;-71
2022/08/02 01:54:16;;;;;;;;;3.00;3.00;;;;;24.98;47.80;101548.00;5083931;27;46032;-71
2022/08/02 01:56:43;;;;;;;;;5.00;3.67;;;;;24.95;47.80;101553.72;5091991;27;46013;-71
2022/08/02 01:59:12;;;;;;;;;3.33;3.33;;;;;24.91;47.29;101548.69;5076636;27;46177;-71
2022/08/02 02:01:40;;;;;;;;;5.33;4.00;;;;;24.89;47.81;101561.59;5089830;27;45513;-71
2022/08/02 02:04:10;;;;;;;;;2.00;2.00;;;;;24.82;47.69;101554.00;5088231;27;45885;-71
2022/08/02 02:06:37;;;;;;;;;3.00;3.00;;;;;24.67;47.47;101521.81;5092048;27;45583;-71
2022/08/02 02:09:04;;;;;;;;;2.67;2.67;;;;;24.79;48.05;101550.69;5079043;27;46371;-72
2022/08/02 02:11:31;;;;;;;;;3.00;3.00;;;;;24.65;47.67;101532.84;5089519;27;45611;-72
2022/08/02 02:14:02;;;;;;;;;5.00;3.67;;;;;24.72;47.80;101541.34;5082274;27;45524;-71
2022/08/02 02:16:29;;;;;;;;;1.67;1.00;;;;;24.70;48.41;101541.50;5081240;27;45847;-72
2022/08/02 02:18:54;;;;;;;;;2.67;2.33;;;;;24.63;48.35;101543.91;5092369;27;46115;-72
2022/08/02 02:21:20;;;;;;;;;2.33;2.33;;;;;24.64;47.92;101542.03;5089906;27;45564;-71
2022/08/02 02:23:45;;;;;;;;;4.33;3.00;;;;;24.61;48.25;101540.47;5091662;27;45503;-71
2022/08/02 02:26:15;;;;;;;;;2.00;2.00;;;;;24.61;48.03;101540.47;5095713;27;45477;-72
2022/08/02 02:28:45;;;;;;;;;2.00;2.00;;;;;24.57;47.75;101532.69;5083029;27;47027;-71
2022/08/02 02:31:14;;;;;;;;;3.00;1.00;;;;;24.60;48.03;101535.13;5094997;27;45470;-71
2022/08/02 02:33:47;;;;;;;;;1.33;0.00;;;;;24.56;48.30;101534.56;5089595;27;45438;-71
2022/08/02 02:36:15;;;;;;;;;3.00;2.00;;;;;24.54;48.21;101533.84;5084505;27;45545;-71
2022/08/02 02:38:41;;;;;;;;;3.00;3.00;;;;;24.56;48.26;101533.69;5079732;27;47425;-72
2022/08/02 02:41:08;;;;;;;;;3.67;2.33;;;;;24.53;48.57;101534.81;5084943;27;45744;-71
2022/08/02 02:43:37;;;;;;;;;3.00;3.00;;;;;24.50;48.20;101532.38;5089427;27;45620;-71
2022/08/02 02:46:04;;;;;;;;;5.33;4.00;;;;;24.50;48.67;101531.53;5084391;27;45395;-71
2022/08/02 02:48:30;;;;;;;;;3.33;3.33;;;;;24.46;48.88;101536.34;5079964;27;46661;-72
2022/08/02 02:50:57;;;;;;;;;1.67;1.67;;;;;24.45;48.29;101529.19;5076672;27;45578;-71
2022/08/02 02:53:23;;;;;;;;;3.67;3.67;;;;;24.43;48.62;101531.19;5091183;27;45612;-71
2022/08/02 02:55:49;;;;;;;;;2.67;2.67;;;;;24.44;48.74;101536.50;5093111;27;45541;-71
2022/08/02 02:58:15;;;;;;;;;3.00;3.00;;;;;24.40;48.60;101526.88;5087788;27;45448;-71
2022/08/02 03:03:25;;;;;;;;;4.00;4.00;;;;;24.42;48.59;101524.88;5091169;27;45569;-71
2022/08/02 03:05:51;;;;;;;;;3.00;3.00;;;;;24.42;48.75;101527.59;5087972;27;46114;-72
2022/08/02 03:08:16;;;;;;;;;4.33;3.00;;;;;24.34;48.93;101521.97;5092591;27;46066;-72
2022/08/02 03:10:43;;;;;;;;;4.00;4.00;;;;;24.38;48.89;101533.47;5089286;27;45474;-72
2022/08/02 03:13:10;;;;;;;;;3.00;3.00;;;;;24.36;49.13;101532.72;5083897;27;45852;-72
2022/08/02 03:15:36;;;;;;;;;3.67;3.67;;;;;24.31;48.74;101524.13;5091265;27;45679;-72
2022/08/02 03:18:02;;;;;;;;;4.00;3.00;;;;;24.21;49.20;101513.19;5090956;27;47839;-72
2022/08/02 03:20:27;;;;;;;;;3.67;3.67;;;;;24.27;49.16;101517.22;5090675;27;45529;-71
2022/08/02 03:22:53;;;;;;;;;3.00;1.00;;;;;24.27;49.22;101522.66;5086928;27;45547;-72
2022/08/02 03:25:18;;;;;;;;;3.33;3.33;;;;;24.25;49.10;101520.06;5069674;27;45444;-71
2022/08/02 03:27:44;;;;;;;;;2.00;2.00;;;;;24.20;48.83;101519.63;5091550;27;45875;-71
2022/08/02 03:30:11;;;;;;;;;2.33;2.33;;;;;24.21;49.15;101524.94;5087730;27;45477;-71
2022/08/02 03:32:38;;;;;;;;;3.33;3.00;;;;;24.19;49.37;101520.63;5089277;27;45584;-72
2022/08/02 03:35:06;;;;;;;;;2.33;2.33;;;;;24.11;48.92;101506.81;5090938;27;45576;-72
2022/08/02 03:37:34;;;;;;;;;3.33;3.33;;;;;24.11;48.96;101520.44;5090200;27;46629;-71
2022/08/02 03:40:00;;;;;;;;;4.00;4.00;;;;;24.08;49.15;101521.56;5090081;27;45564;-72
2022/08/02 03:42:27;;;;;;;;;4.00;4.00;;;;;24.05;49.57;101504.66;5089389;27;45635;-71
2022/08/02 03:44:54;;;;;;;;;5.00;4.00;;;;;24.08;49.27;101518.84;5088618;27;46947;-72
2022/08/02 03:47:21;;;;;;;;;5.00;3.00;;;;;23.99;48.83;101508.75;5090373;27;45567;-71
2022/08/02 03:49:46;;;;;;;;;5.00;4.33;;;;;24.09;49.17;101520.59;5089091;27;45470;-71
2022/08/02 03:52:12;;;;;;;;;4.00;4.00;;;;;24.01;48.96;101510.34;5077159;27;45574;-71
2022/08/02 03:54:38;;;;;;;;;5.00;4.00;;;;;23.99;49.10;101504.19;5091414;27;45728;-72
2022/08/02 03:57:07;;;;;;;;;4.00;4.00;;;;;23.99;49.14;101516.94;5087434;27;48544;-72
2022/08/02 03:59:41;;;;;;;;;4.67;3.00;;;;;23.94;49.25;101502.88;5093229;27;46915;-71
2022/08/02 04:02:06;;;;;;;;;0.00;0.00;;;;;23.98;48.98;101512.50;5096097;27;45578;-71
2022/08/02 04:04:31;;;;;;;;;5.00;4.00;;;;;24.00;49.40;101521.41;5096881;27;45561;-71
2022/08/02 04:06:57;;;;;;;;;3.00;1.67;;;;;23.96;49.17;101509.03;5096625;27;45965;-71
2022/08/02 04:09:22;;;;;;;;;4.33;3.00;;;;;23.99;48.78;101519.66;5096411;27;45461;-72
2022/08/02 04:11:48;;;;;;;;;5.33;4.00;;;;;23.97;49.10;101519.78;5096339;27;45538;-71
2022/08/02 04:14:13;;;;;;;;;3.00;3.00;;;;;23.93;49.46;101518.34;5096109;27;45589;-72
2022/08/02 04:16:51;;;;;;;;;2.00;2.00;;;;;23.80;49.12;101495.91;5097506;27;45630;-71
2022/08/02 04:19:25;;;;;;;;;2.67;1.67;;;;;23.80;48.95;101495.91;5095909;27;45694;-72
2022/08/02 04:21:53;;;;;;;;;2.33;2.33;;;;;23.87;49.50;101513.44;5096365;27;45999;-72
2022/08/02 04:24:33;;;;;;;;;3.67;3.67;;;;;23.86;49.20;101514.44;5096334;27;45612;-72
2022/08/02 04:27:00;;;;;;;;;4.00;2.00;;;;;23.74;49.02;101491.88;5095189;27;46633;-71
2022/08/02 04:29:26;;;;;;;;;2.67;2.67;;;;;23.86;49.51;101519.91;5096703;27;45696;-71
2022/08/02 04:31:53;;;;;;;;;3.00;3.00;;;;;23.83;49.11;101517.41;5094353;27;45710;-71
2022/08/02 04:34:19;;;;;;;;;2.33;2.33;;;;;23.81;49.65;101516.69;5097859;27;45517;-71
2022/08/02 04:36:45;;;;;;;;;3.00;3.00;;;;;23.81;49.41;101519.41;5095838;27;46273;-71
2022/08/02 04:39:11;;;;;;;;;4.67;3.00;;;;;23.80;49.69;101528.59;5097007;27;46073;-72
2022/08/02 04:41:42;;;;;;;;;3.00;2.33;;;;;23.79;49.18;101518.69;5095231;27;45610;-71
2022/08/02 04:44:08;;;;;;;;;2.33;2.33;;;;;23.75;49.35;101514.53;5096243;27;46847;-71
2022/08/02 04:46:35;;;;;;;;;5.00;3.67;;;;;23.78;49.54;101522.41;5093331;27;47328;-71
2022/08/02 04:49:01;;;;;;;;;4.00;3.00;;;;;23.77;49.26;101517.97;5097560;27;45858;-71
2022/08/02 04:51:26;;;;;;;;;4.67;4.33;;;;;23.75;49.81;101528.97;5094161;27;45652;-71
2022/08/02 04:53:52;;;;;;;;;2.67;2.67;;;;;23.75;49.46;101530.84;5097115;27;45556;-71
2022/08/02 04:56:17;;;;;;;;;4.00;3.00;;;;;23.73;49.83;101520.06;5084555;27;46157;-71
2022/08/02 04:58:42;;;;;;;;;3.33;3.33;;;;;23.73;49.95;101519.19;5094311;27;45530;-72
2022/08/02 05:01:08;;;;;;;;;3.00;3.00;;;;;23.73;50.18;101535.53;5086997;27;45566;-71
2022/08/02 05:03:33;;;;;;;;;2.67;2.33;;;;;23.68;50.02;101516.03;5097327;27;46778;-71
2022/08/02 05:05:59;;;;;;;;;2.33;2.33;;;;;23.75;49.58;101530.84;5094714;27;46994;-71
2022/08/02 05:08:25;;;;;;;;;2.67;2.67;;;;;23.75;50.16;101528.13;5081984;27;45777;-72
2022/08/02 05:10:50;;;;;;;;;4.00;4.00;;;;;23.73;49.71;101528.22;5094108;27;45947;-72
2022/08/02 05:13:16;;;;;;;;;2.00;2.00;;;;;23.74;49.68;101532.72;5094667;27;45559;-71
2022/08/02 05:15:41;;;;;;;;;3.00;3.00;;;;;23.75;49.74;101526.25;5090358;27;48167;-72
2022/08/02 05:18:07;;;;;;;;;1.67;1.67;;;;;23.78;49.56;101531.44;5092488;27;45478;-71
2022/08/02 05:20:32;;;;;;;;;3.00;3.00;;;;;23.77;49.22;101524.28;5092252;27;45677;-71
2022/08/02 05:22:57;;;;;;;;;2.00;2.00;;;;;23.78;49.60;101538.75;5092836;27;45743;-71
2022/08/02 05:25:23;;;;;;;;;4.67;2.67;;;;;23.79;48.89;101526.88;5090974;27;45747;-71
2022/08/02 05:27:48;;;;;;;;;3.00;1.33;;;;;23.78;48.79;101536.88;5091754;27;45797;-71
2022/08/02 05:30:13;;;;;;;;;2.33;2.33;;;;;23.78;49.41;101542.31;5093271;27;45758;-71
2022/08/02 05:32:47;;;;;;;;;4.67;2.00;;;;;23.63;48.56;101515.56;5090613;27;45352;-71
2022/08/02 05:35:15;;;;;;;;;2.00;2.00;;;;;23.77;48.86;101531.59;5092772;27;46336;-71
2022/08/02 05:37:41;;;;;;;;;2.00;2.00;;;;;23.78;48.96;101531.44;5096358;27;45523;-71
2022/08/02 05:40:07;;;;;;;;;2.33;1.67;;;;;23.73;48.68;101527.38;5089174;27;45619;-71
2022/08/02 05:42:32;;;;;;;;;4.00;3.00;;;;;23.81;49.07;101530.28;5095121;27;45510;-71
2022/08/02 05:44:58;;;;;;;;;2.00;2.00;;;;;23.81;49.35;101530.28;5092004;27;46291;-71
2022/08/02 05:47:24;;;;;;;;;3.00;3.00;;;;;23.82;49.11;101531.19;5095137;27;45475;-71
2022/08/02 05:49:50;;;;;;;;;5.33;3.00;;;;;23.83;49.04;101533.75;5093838;27;45581;-71
2022/08/02 05:52:17;;;;;;;;;4.33;1.00;;;;;23.84;49.56;101537.38;5093815;27;45478;-71
2022/08/02 05:54:53;;;;;;;;;2.00;2.00;;;;;23.85;48.92;101536.34;5088083;27;46023;-71
2022/08/02 05:57:32;;;;;;;;;3.00;2.00;;;;;23.86;49.11;101538.94;5094942;27;45635;-71
2022/08/02 06:00:08;;;;;;;;;4.00;3.00;;;;;23.91;48.66;101533.97;5085247;27;45731;-72
2022/08/02 06:03:04;;;;;;;;;2.67;2.67;;;;;23.94;48.63;101535.53;5093772;27;46295;-71
2022/08/02 06:05:38;;;;;;;;;1.00;1.00;;;;;23.95;48.62;101531.81;5090723;27;45696;-71
2022/08/02 06:08:08;;;;;;;;;3.33;2.33;;;;;23.98;48.63;101532.41;5090554;27;45970;-72
2022/08/02 06:10:35;;;;;;;;;4.00;2.67;;;;;24.00;48.95;101535.88;5053765;27;46700;-72
2022/08/02 06:13:11;;;;;;;;;2.00;2.00;;;;;24.01;48.95;101536.72;5055464;28;46899;-72
2022/08/02 06:15:37;;;;;;;;;2.00;2.00;;;;;24.00;48.88;101526.84;5052722;28;46452;-72
2022/08/02 06:18:04;;;;;;;;;1.33;1.33;;;;;24.01;48.89;101529.41;5051144;28;45579;-73
2022/08/02 06:20:36;;;;;;;;;6.00;5.00;;;;;24.10;49.02;101540.50;5058993;28;45559;-73
2022/08/02 06:23:05;;;;;;;;;3.00;3.00;;;;;24.13;48.72;101545.69;5049734;28;45526;-72
2022/08/02 06:25:32;;;;;;;;;3.67;3.33;;;;;24.13;48.69;101540.22;5050257;28;46395;-71
2022/08/02 06:27:59;;;;;;;;;2.67;2.67;;;;;24.18;48.63;101537.94;5056392;28;45878;-72
2022/08/02 06:30:25;;;;;;;;;6.00;6.00;;;;;24.23;48.76;101541.13;5050600;28;45659;-72
2022/08/02 06:32:51;;;;;;;;;3.00;2.00;;;;;24.27;49.76;101549.91;5054360;28;45737;-72
2022/08/02 06:35:17;;;;;;;;;4.00;2.33;;;;;24.30;49.41;101544.16;5053781;28;45751;-71
2022/08/02 06:37:51;;;;;;;;;2.33;2.33;;;;;24.24;49.66;101542.88;5048517;28;45938;-71
2022/08/02 06:40:16;;;;;;;;;3.00;3.00;;;;;24.32;49.43;101543.03;5049759;28;46713;-71
2022/08/02 06:42:56;;;;;;;;;2.67;2.00;;;;;24.30;49.39;101536.00;5050852;28;45572;-71
2022/08/02 06:45:22;;;;;;;;;2.00;2.00;;;;;24.38;48.87;101545.22;5045727;28;46083;-71
2022/08/02 06:47:47;;;;;;;;;1.33;1.00;;;;;24.40;48.87;101548.69;5046762;28;45704;-72
2022/08/02 06:50:13;;;;;;;;;2.00;2.00;;;;;24.43;48.85;101553.84;5049513;28;45496;-72
2022/08/02 06:52:39;;;;;;;;;2.33;2.33;;;;;24.34;48.23;101535.59;5049572;28;45468;-72
2022/08/02 06:55:05;;;;;;;;;2.00;2.00;;;;;24.52;48.02;101556.78;5049962;28;45704;-72
2022/08/02 06:57:31;;;;;;;;;1.00;1.00;;;;;24.50;47.46;101551.47;5053192;28;45506;-72
2022/08/02 07:00:00;;;;;;;;;2.33;2.00;;;;;24.48;48.20;101533.53;5050110;28;45678;-72
2022/08/02 07:02:26;;;;;;;;;2.67;2.67;;;;;24.68;48.08;101558.97;5045323;28;45678;-72
2022/08/02 07:04:51;;;;;;;;;1.00;1.00;;;;;24.67;47.90;101546.34;5053343;28;46251;-71
2022/08/02 07:07:17;;;;;;;;;2.00;2.00;;;;;24.80;47.34;101566.06;5051043;28;45564;-72
2022/08/02 07:09:42;;;;;;;;;1.33;1.33;;;;;24.88;46.77;101560.75;5049682;28;45846;-72
2022/08/02 07:12:08;;;;;;;;;3.00;3.00;;;;;24.91;46.74;101560.50;5049319;28;45534;-73
2022/08/02 07:14:33;;;;;;;;;3.67;3.00;;;;;24.91;46.47;101557.75;5054707;28;46177;-75
2022/08/02 07:16:58;;;;;;;;;1.67;1.67;;;;;24.94;46.58;101553.88;5055211;28;45481;-78
2022/08/02 07:19:24;;;;;;;;;2.00;2.00;;;;;24.99;46.10;101560.63;5051195;28;45747;-76
2022/08/02 07:21:49;;;;;;;;;3.00;2.00;;;;;25.03;46.45;101558.50;5054585;28;45464;-73
2022/08/02 07:24:14;;;;;;;;;3.33;2.67;;;;;25.09;46.41;101557.91;5049930;28;50296;-75
2022/08/02 07:26:40;;;;;;;;;3.00;3.00;;;;;25.13;46.53;101555.78;5058360;28;45795;-72
2022/08/02 07:29:05;;;;;;;;;6.00;4.00;;;;;25.19;46.10;101560.66;5060324;28;45418;-72
2022/08/02 07:31:30;;;;;;;;;2.00;2.00;;;;;25.21;46.12;101554.06;5051110;28;45613;-73
2022/08/02 07:33:56;;;;;;;;;2.00;2.00;;;;;25.27;45.57;101560.84;5053039;28;46758;-73
2022/08/02 07:36:21;;;;;;;;;2.00;2.00;;;;;25.34;45.67;101563.88;5055711;28;45592;-72
2022/08/02 07:38:48;;;;;;;;;1.67;1.00;;;;;25.35;45.76;101558.25;5051596;28;45458;-72
2022/08/02 07:41:13;;;;;;;;;3.00;2.00;;;;;25.38;45.59;101557.97;5048589;28;46377;-73
2022/08/02 07:43:39;;;;;;;;;1.67;1.67;;;;;25.45;44.89;101566.41;5050220;28;45754;-72
2022/08/02 07:46:04;;;;;;;;;3.33;3.33;;;;;25.51;44.61;101560.41;5049688;28;48085;-72
2022/08/02 07:48:29;;;;;;;;;2.67;2.67;;;;;25.55;44.48;101556.38;5063297;28;45474;-73
2022/08/02 07:50:54;;;;;;;;;4.00;2.00;;;;;25.63;45.01;101555.63;5060152;28;45522;-73
2022/08/02 07:53:20;;;;;;;;;2.00;2.00;;;;;25.63;44.22;101555.63;5050052;28;46189;-72
2022/08/02 07:55:45;;;;;;;;;4.00;2.00;;;;;25.67;43.75;101568.00;5042598;28;45868;-72
2022/08/02 07:58:11;;;;;;;;;2.00;2.00;;;;;25.72;44.34;101565.69;5050876;28;45733;-73
2022/08/02 08:00:36;;;;;;;;;2.00;2.00;;;;;25.76;43.87;101569.84;5052286;28;45625;-72
2022/08/02 08:03:01;;;;;;;;;1.00;1.00;;;;;25.79;44.03;101569.56;5052596;28;46198;-73
2022/08/02 08:05:27;;;;;;;;;0.00;0.00;;;;;25.85;44.02;101568.13;5049973;28;45470;-73
2022/08/02 08:07:52;;;;;;;;;2.00;2.00;;;;;25.90;44.14;101563.97;5045907;28;45685;-72
2022/08/02 08:10:17;;;;;;;;;4.67;2.00;;;;;25.95;43.85;101563.53;5085630;27;45443;-73
2022/08/02 08:12:43;;;;;;;;;4.00;2.33;;;;;25.99;43.25;101551.31;5089369;27;46225;-73
2022/08/02 08:15:09;;;;;;;;;3.00;2.00;;;;;26.07;43.90;101556.88;5092643;27;45513;-77
2022/08/02 08:17:35;;;;;;;;;3.00;1.67;;;;;26.04;43.01;101545.41;5087739;27;45470;-72
2022/08/02 08:20:02;;;;;;;;;1.33;1.00;;;;;26.10;43.27;101539.31;5085784;27;45496;-73
2022/08/02 08:22:27;;;;;;;;;2.00;2.00;;;;;26.03;43.34;101521.78;5083961;27;45651;-74
2022/08/02 08:24:52;;;;;;;;;1.00;1.00;;;;;26.27;43.24;101546.75;5080088;27;45471;-72
2022/08/02 08:27:21;;;;;;;;;0.67;0.67;;;;;26.25;42.94;101529.63;5090763;27;49772;-83
2022/08/02 08:29:46;;;;;;;;;2.00;2.00;;;;;26.38;42.89;101542.09;5084773;27;45714;-79
2022/08/02 08:32:12;;;;;;;;;1.33;1.33;;;;;26.43;42.79;101545.22;5090941;27;46358;-82
2022/08/02 08:34:38;;;;;;;;;3.00;1.00;;;;;26.48;42.45;101529.22;5084690;27;45530;-75
2022/08/02 08:37:03;;;;;;;;;4.00;2.33;;;;;26.58;42.33;101546.50;5068506;27;45653;-75
2022/08/02 08:39:29;;;;;;;;;1.00;1.00;;;;;26.55;41.97;101530.41;5091339;27;45598;-74
2022/08/02 08:41:54;;;;;;;;;1.00;1.00;;;;;26.67;42.25;101542.00;5091094;27;46036;-76
2022/08/02 08:44:20;;;;;;;;;1.75;1.75;;;;;26.76;42.35;101538.31;5088521;27;45523;-76
2022/08/02 08:46:48;;;;;;;;;2.00;1.00;;;;;26.90;41.79;101534.19;5094375;27;45465;-74
2022/08/02 08:49:43;;;;;;;;;2.00;2.00;;;;;27.13;41.67;101534.59;5095252;27;45426;-75
2022/08/02 08:52:10;;;;;;;;;1.00;1.00;;;;;27.46;40.39;101538.50;5085334;27;46088;-74
2022/08/02 08:54:37;;;;;;;;;3.00;2.00;;;;;28.70;38.65;101530.03;5096648;27;45545;-75
2022/08/02 08:57:04;;;;;;;;;1.00;1.00;;;;;32.04;33.08;101511.66;5092311;27;45400;-76
2022/08/02 08:59:29;;;;;;;;;1.75;1.00;;;;;34.98;29.13;101521.50;5094447;27;45498;-75
2022/08/02 09:01:55;;;;;;;;;3.75;2.00;;;;;37.24;26.06;101525.72;5092688;27;45423;-76
2022/08/02 09:04:21;;;;;;;;;1.75;1.75;;;;;38.40;24.54;101524.19;5089115;27;45711;-88
2022/08/02 09:06:46;;;;;;;;;1.75;1.75;;;;;39.13;23.19;101522.38;5079055;27;45487;-80
2022/08/02 09:09:12;;;;;;;;;1.00;1.00;;;;;39.51;23.33;101523.94;5093204;27;45592;-86
2022/08/02 09:11:37;;;;;;;;;2.00;2.00;;;;;40.73;21.38;101508.25;5089989;27;45572;-88
2022/08/02 09:14:03;;;;;;;;;6.00;1.67;;;;;42.52;20.01;101524.28;5092236;27;45573;-87
2022/08/02 09:16:31;;;;;;;;;2.00;2.00;;;;;43.62;18.70;101527.69;5091731;27;45607;-84
2022/08/02 09:18:56;;;;;;;;;1.00;1.00;;;;;44.17;17.81;101508.63;5092146;27;45636;-85
2022/08/02 09:21:22;;;;;;;;;1.33;1.33;;;;;45.09;17.67;101522.13;5094348;27;45472;-87
2022/08/02 09:23:51;;;;;;;;;1.00;1.00;;;;;45.98;16.83;101522.66;5090542;27;45567;-83
2022/08/02 09:26:18;;;;;;;;;0.00;0.00;;;;;46.57;16.58;101525.81;5092094;27;45541;-83
2022/08/02 09:28:51;;;;;;;;;0.67;0.67;;;;;46.89;16.18;101529.03;5089989;27;45492;-83
2022/08/02 09:31:18;;;;;;;;;2.00;1.00;;;;;46.59;16.39;101530.03;5092318;27;45498;-84
2022/08/02 09:33:49;;;;;;;;;2.00;1.00;;;;;46.78;15.35;101523.75;5093856;27;45520;-84
2022/08/02 09:36:15;;;;;;;;;1.33;1.33;;;;;47.59;14.96;101527.09;5095372;27;45454;-87
2022/08/02 09:39:09;;;;;;;;;2.00;2.00;;;;;48.24;15.57;101523.81;5092877;27;45595;-86
2022/08/02 09:41:40;;;;;;;;;1.00;1.00;;;;;48.79;14.12;101532.69;5086597;27;45586;-86
2022/08/02 09:44:06;;;;;;;;;1.00;1.00;;;;;48.99;14.13;101528.75;5095776;27;45497;-88
2022/08/02 09:46:40;;;;;;;;;0.00;0.00;;;;;49.77;14.14;101523.41;5077097;27;45589;-84
2022/08/02 09:49:15;;;;;;;;;1.00;1.00;;;;;50.56;13.14;101525.19;5078417;27;45527;-79
2022/08/02 09:51:44;;;;;;;;;1.33;1.00;;;;;51.12;12.59;101521.03;5090514;27;45600;-86
2022/08/02 09:54:14;;;;;;;;;1.00;1.00;;;;;51.75;12.32;101519.09;5085926;27;45548;-84
2022/08/02 09:56:44;;;;;;;;;2.33;2.33;;;;;52.21;11.79;101516.91;5093032;27;45803;-84
2022/08/02 09:59:10;;;;;;;;;1.67;1.67;;;;;52.50;11.73;101514.31;5091581;27;45475;-84
2022/08/02 10:01:37;;;;;;;;;3.33;3.00;;;;;52.92;11.64;101513.81;5072901;27;45615;-86
2022/08/02 10:04:10;;;;;;;;;3.00;1.00;;;;;53.14;11.35;101502.25;5091151;27;45892;-86
2022/08/02 10:06:36;;;;;;;;;6.00;4.00;;;;;53.16;11.17;101507.63;5087709;27;45491;-87
2022/08/02 10:09:02;;;;;;;;;11.33;11.00;;;;;53.12;11.04;101515.16;5074209;27;45564;-88
2022/08/02 10:11:28;;;;;;;;;0.67;0.67;;;;;53.01;11.03;101511.78;5091690;27;45512;-82
2022/08/02 10:13:54;;;;;;;;;2.00;2.00;;;;;52.97;11.50;101510.81;5072788;27;45579;-87
2022/08/02 10:16:24;;;;;;;;;1.00;1.00;;;;;52.98;11.25;101509.63;5092741;27;45628;-87
2022/08/02 10:18:53;;;;;;;;;3.00;2.00;;;;;52.92;11.12;101513.81;5089539;27;45754;-87
2022/08/02 10:21:32;;;;;;;;;2.00;2.00;;;;;52.61;11.59;101494.88;5086504;27;45500;-86
2022/08/02 10:24:09;;;;;;;;;2.33;2.33;;;;;52.64;11.36;101513.28;5093381;27;45584;-86
2022/08/02 10:26:38;;;;;;;;;2.00;2.00;;;;;52.56;11.27;101512.13;5088325;27;45495;-86
2022/08/02 10:29:03;;;;;;;;;0.33;0.33;;;;;52.47;11.37;101511.28;5092429;27;45514;-86
2022/08/02 10:31:37;;;;;;;;;1.00;1.00;;;;;52.30;11.46;101507.22;5069320;28;48073;-86
2022/08/02 10:34:08;;;;;;;;;0.00;0.00;;;;;52.10;11.33;101490.75;5086624;27;45640;-86
2022/08/02 10:36:36;;;;;;;;;0.33;0.33;;;;;51.97;11.20;101503.09;5075579;28;45331;-82
2022/08/02 10:39:02;;;;;;;;;1.00;1.00;;;;;51.72;11.70;101502.66;5090520;27;45505;-82
2022/08/02 10:41:48;;;;;;;;;2.00;2.00;;;;;51.41;11.76;101503.50;5090720;27;46223;-90
2022/08/02 10:44:31;;;;;;;;;1.00;1.00;;;;;51.23;11.87;101504.53;5089372;27;45552;-89
2022/08/02 10:47:24;;;;;;;;;0.33;0.33;;;;;50.76;11.92;101504.00;5083811;27;45534;-89
2022/08/02 10:49:58;;;;;;;;;0.33;0.33;;;;;50.52;11.84;101501.44;5072263;27;45442;-90
2022/08/02 10:52:28;;;;;;;;;2.00;2.00;;;;;50.09;12.15;101510.31;5085428;27;46254;-87
2022/08/02 10:55:02;;;;;;;;;1.00;1.00;;;;;49.57;12.34;101494.31;5083595;27;45567;-73
2022/08/02 10:57:29;;;;;;;;;1.33;1.33;;;;;49.46;12.12;101489.16;5095172;27;46760;-77
2022/08/02 11:00:11;;;;;;;;;2.33;2.33;;;;;49.05;12.90;101481.34;5094518;27;45482;-80
2022/08/02 11:02:39;;;;;;;;;1.33;1.33;;;;;48.85;12.91;101459.88;5094307;27;46420;-79
2022/08/02 11:05:10;;;;;;;;;1.33;1.33;;;;;48.92;13.69;101475.31;5086507;27;45536;-81
2022/08/02 11:07:47;;;;;;;;;1.00;1.00;;;;;48.73;13.08;101454.66;5086097;27;45370;-76
2022/08/02 11:10:24;;;;;;;;;0.00;0.00;;;;;48.54;13.22;101468.78;5091647;27;45543;-76
2022/08/02 11:12:59;;;;;;;;;1.67;1.67;;;;;48.31;13.83;101462.94;5084495;27;46227;-76
2022/08/02 11:15:24;;;;;;;;;1.33;1.33;;;;;48.06;13.55;101454.75;5086799;27;45590;-76
2022/08/02 11:17:55;;;;;;;;;1.00;1.00;;;;;47.62;13.96;101451.03;5091967;27;45565;-80
2022/08/02 11:20:25;;;;;;;;;2.00;2.00;;;;;47.13;14.18;101455.72;5084865;27;45766;-77
2022/08/02 11:22:53;;;;;;;;;1.00;1.00;;;;;46.71;14.37;101451.53;5087396;27;46982;-77
2022/08/02 11:25:21;;;;;;;;;2.00;1.67;;;;;46.38;14.87;101443.84;5093622;27;45483;-79
2022/08/02 11:27:47;;;;;;;;;1.00;1.00;;;;;45.90;15.20;101436.72;5090069;27;45493;-77
2022/08/02 11:30:13;;;;;;;;;0.67;0.67;;;;;45.52;15.23;101432.59;5060843;27;45983;-86
2022/08/02 11:32:39;;;;;;;;;0.00;0.00;;;;;45.21;15.36;101445.88;5069483;28;46988;-82
2022/08/02 11:35:04;;;;;;;;;1.00;1.00;;;;;44.73;15.49;101437.66;5083471;27;45756;-82